sensor_id;sensor_type;location;lat;lon;timestamp;pressure;altitude;pressure_sealevel;temperature;humidity
6433;BME280;3249;42.690;23.260;2023-01-29T00:00:20;94409.13;;;0.73;100.00
6433;BME280;3249;42.690;23.260;2023-01-29T00:02:52;94411.00;;;0.71;100.00
6433;BME280;3249;42.690;23.260;2023-01-29T00:05:22;94414.03;;;0.67;100.00
6433;BME280;3249;42.690;23.260;2023-01-29T00:07:51;94411.31;;;0.60;100.00
6433;BME280;3249;42.690;23.260;2023-01-29T00:10:20;94418.69;;;0.54;100.00
6433;BME280;3249;42.690;23.260;2023-01-29T00:12:49;94412.78;;;0.37;100.00
6433;BME280;3249;42.690;23.260;2023-01-29T00:15:18;94422.03;;;0.21;100.00
6433;BME280;3249;42.690;23.260;2023-01-29T00:17:47;94419.03;;;0.17;100.00
6433;BME280;3249;42.690;23.260;2023-01-29T00:20:18;94422.50;;;0.16;100.00
6433;BME280;3249;42.690;23.260;2023-01-29T00:22:47;94420.69;;;0.08;100.00
6433;BME280;3249;42.690;23.260;2023-01-29T00:25:16;94423.53;;;0.05;100.00
6433;BME280;3249;42.690;23.260;2023-01-29T00:27:45;94423.84;;;0.03;100.00
6433;BME280;3249;42.690;23.260;2023-01-29T00:30:15;94430.44;;;-0.05;100.00
6433;BME280;3249;42.690;23.260;2023-01-29T00:32:44;94376.31;;;-0.37;100.00
6433;BME280;3249;42.690;23.260;2023-01-29T00:35:13;94424.09;;;-0.09;100.00
6433;BME280;3249;42.690;23.260;2023-01-29T00:37:45;94425.31;;;-0.13;100.00
6433;BME280;3249;42.690;23.260;2023-01-29T00:40:14;94425.31;;;-0.13;100.00
6433;BME280;3249;42.690;23.260;2023-01-29T00:42:45;94425.38;;;-0.05;100.00
6433;BME280;3249;42.690;23.260;2023-01-29T00:45:26;94425.72;;;0.00;100.00
6433;BME280;3249;42.690;23.260;2023-01-29T00:47:55;94429.25;;;0.08;100.00
6433;BME280;3249;42.690;23.260;2023-01-29T00:50:24;94426.84;;;0.06;100.00
6433;BME280;3249;42.690;23.260;2023-01-29T00:52:56;94419.41;;;0.04;100.00
6433;BME280;3249;42.690;23.260;2023-01-29T00:55:25;94429.66;;;0.03;100.00
6433;BME280;3249;42.690;23.260;2023-01-29T00:57:54;94431.06;;;-0.03;100.00
6433;BME280;3249;42.690;23.260;2023-01-29T01:00:23;94425.94;;;-0.11;100.00
6433;BME280;3249;42.690;23.260;2023-01-29T01:02:52;94416.09;;;-0.22;100.00
6433;BME280;3249;42.690;23.260;2023-01-29T01:05:31;94429.22;;;-0.18;100.00
6433;BME280;3249;42.690;23.260;2023-01-29T01:08:02;94421.03;;;-0.12;100.00
6433;BME280;3249;42.690;23.260;2023-01-29T01:10:58;94382.81;;;-0.35;100.00
6433;BME280;3249;42.690;23.260;2023-01-29T01:13:24;94419.31;;;-0.12;100.00
6433;BME280;3249;42.690;23.260;2023-01-29T01:15:53;94419.34;;;-0.04;100.00
6433;BME280;3249;42.690;23.260;2023-01-29T01:18:22;94420.03;;;-0.02;100.00
6433;BME280;3249;42.690;23.260;2023-01-29T01:20:56;94420.06;;;0.07;100.00
6433;BME280;3249;42.690;23.260;2023-01-29T01:23:28;94358.22;;;-0.25;100.00
6433;BME280;3249;42.690;23.260;2023-01-29T01:25:57;94416.19;;;0.20;100.00
6433;BME280;3249;42.690;23.260;2023-01-29T01:28:26;94406.94;;;0.11;100.00
6433;BME280;3249;42.690;23.260;2023-01-29T01:30:55;94417.91;;;0.20;100.00
6433;BME280;3249;42.690;23.260;2023-01-29T01:33:24;94415.00;;;0.07;100.00
6433;BME280;3249;42.690;23.260;2023-01-29T01:35:53;94422.84;;;-0.05;100.00
6433;BME280;3249;42.690;23.260;2023-01-29T01:38:22;94416.97;;;-0.05;100.00
6433;BME280;3249;42.690;23.260;2023-01-29T01:40:54;94418.72;;;-0.06;100.00
6433;BME280;3249;42.690;23.260;2023-01-29T01:43:25;94416.78;;;-0.12;100.00
6433;BME280;3249;42.690;23.260;2023-01-29T01:45:54;94413.09;;;-0.17;100.00
6433;BME280;3249;42.690;23.260;2023-01-29T01:48:25;94420.84;;;-0.19;100.00
6433;BME280;3249;42.690;23.260;2023-01-29T01:50:57;94425.84;;;-0.27;100.00
6433;BME280;3249;42.690;23.260;2023-01-29T01:53:30;94417.91;;;-0.32;100.00
6433;BME280;3249;42.690;23.260;2023-01-29T01:56:08;94425.28;;;-0.38;100.00
6433;BME280;3249;42.690;23.260;2023-01-29T01:58:40;94427.97;;;-0.40;100.00
6433;BME280;3249;42.690;23.260;2023-01-29T02:01:12;94433.97;;;-0.41;100.00
6433;BME280;3249;42.690;23.260;2023-01-29T02:03:44;94437.13;;;-0.39;100.00
6433;BME280;3249;42.690;23.260;2023-01-29T02:06:26;94431.88;;;-0.45;100.00
6433;BME280;3249;42.690;23.260;2023-01-29T02:09:10;94425.09;;;-0.45;100.00
6433;BME280;3249;42.690;23.260;2023-01-29T02:11:57;94428.25;;;-0.43;100.00
6433;BME280;3249;42.690;23.260;2023-01-29T02:14:26;94427.97;;;-0.40;100.00
6433;BME280;3249;42.690;23.260;2023-01-29T02:16:56;94429.06;;;-0.42;100.00
6433;BME280;3249;42.690;23.260;2023-01-29T02:19:37;94430.56;;;-0.32;100.00
6433;BME280;3249;42.690;23.260;2023-01-29T02:25:34;94426.69;;;-0.18;100.00
6433;BME280;3249;42.690;23.260;2023-01-29T02:28:36;94435.38;;;-0.21;100.00
6433;BME280;3249;42.690;23.260;2023-01-29T02:31:11;94433.63;;;-0.20;100.00
6433;BME280;3249;42.690;23.260;2023-01-29T02:33:58;94441.88;;;-0.18;100.00
6433;BME280;3249;42.690;23.260;2023-01-29T02:36:34;94435.25;;;-0.19;100.00
6433;BME280;3249;42.690;23.260;2023-01-29T02:39:14;94443.66;;;-0.11;100.00
6433;BME280;3249;42.690;23.260;2023-01-29T02:41:49;94441.59;;;-0.15;100.00
6433;BME280;3249;42.690;23.260;2023-01-29T02:44:29;94449.59;;;-0.20;100.00
6433;BME280;3249;42.690;23.260;2023-01-29T02:47:07;94448.66;;;-0.19;100.00
6433;BME280;3249;42.690;23.260;2023-01-29T02:49:43;94449.59;;;-0.20;100.00
6433;BME280;3249;42.690;23.260;2023-01-29T02:52:18;94455.16;;;-0.16;100.00
6433;BME280;3249;42.690;23.260;2023-01-29T02:54:53;94399.16;;;-0.47;100.00
6433;BME280;3249;42.690;23.260;2023-01-29T02:57:26;94451.28;;;-0.03;100.00
6433;BME280;3249;42.690;23.260;2023-01-29T03:00:05;94452.00;;;0.08;100.00
6433;BME280;3249;42.690;23.260;2023-01-29T03:02:41;94455.16;;;0.09;100.00
6433;BME280;3249;42.690;23.260;2023-01-29T03:05:15;94447.53;;;0.01;100.00
6433;BME280;3249;42.690;23.260;2023-01-29T03:07:52;94451.66;;;0.03;100.00
6433;BME280;3249;42.690;23.260;2023-01-29T03:10:34;94448.03;;;0.05;100.00
6433;BME280;3249;42.690;23.260;2023-01-29T03:13:07;94449.38;;;0.17;100.00
6433;BME280;3249;42.690;23.260;2023-01-29T03:15:43;94458.88;;;0.23;100.00
6433;BME280;3249;42.690;23.260;2023-01-29T03:18:47;94455.88;;;0.20;100.00
6433;BME280;3249;42.690;23.260;2023-01-29T03:21:21;94457.75;;;0.17;100.00
6433;BME280;3249;42.690;23.260;2023-01-29T03:24:05;94465.50;;;0.16;100.00
6433;BME280;3249;42.690;23.260;2023-01-29T03:26:50;94459.94;;;0.13;100.00
6433;BME280;3249;42.690;23.260;2023-01-29T03:29:37;94459.94;;;0.13;100.00
6433;BME280;3249;42.690;23.260;2023-01-29T03:32:27;94466.56;;;0.13;100.00
6433;BME280;3249;42.690;23.260;2023-01-29T03:35:02;94467.69;;;0.11;100.00
6433;BME280;3249;42.690;23.260;2023-01-29T03:37:35;94391.34;;;-0.36;100.00
6433;BME280;3249;42.690;23.260;2023-01-29T03:40:06;94464.00;;;0.05;100.00
6433;BME280;3249;42.690;23.260;2023-01-29T03:42:43;94405.69;;;-0.36;100.00
6433;BME280;3249;42.690;23.260;2023-01-29T03:45:21;94457.97;;;-0.02;100.00
6433;BME280;3249;42.690;23.260;2023-01-29T03:47:59;94458.66;;;0.08;100.00
6433;BME280;3249;42.690;23.260;2023-01-29T03:50:37;94432.25;;;-0.15;100.00
6433;BME280;3249;42.690;23.260;2023-01-29T03:53:17;94465.91;;;0.03;100.00
6433;BME280;3249;42.690;23.260;2023-01-29T03:55:53;94413.34;;;-0.28;100.00
6433;BME280;3249;42.690;23.260;2023-01-29T03:58:32;94461.06;;;-0.08;100.00
6433;BME280;3249;42.690;23.260;2023-01-29T04:01:09;94457.00;;;-0.01;100.00
6433;BME280;3249;42.690;23.260;2023-01-29T04:03:47;94458.94;;;0.05;100.00
6433;BME280;3249;42.690;23.260;2023-01-29T04:06:20;94457.56;;;0.11;100.00
6433;BME280;3249;42.690;23.260;2023-01-29T04:09:10;94458.69;;;0.17;100.00
6433;BME280;3249;42.690;23.260;2023-01-29T04:11:46;94459.03;;;0.22;100.00
6433;BME280;3249;42.690;23.260;2023-01-29T04:14:17;94405.59;;;-0.27;100.00
6433;BME280;3249;42.690;23.260;2023-01-29T04:16:50;94472.00;;;0.19;100.00
6433;BME280;3249;42.690;23.260;2023-01-29T04:19:32;94464.84;;;0.14;100.00
6433;BME280;3249;42.690;23.260;2023-01-29T04:22:04;94472.88;;;0.09;100.00
6433;BME280;3249;42.690;23.260;2023-01-29T04:24:34;94465.56;;;-0.02;100.00
6433;BME280;3249;42.690;23.260;2023-01-29T04:27:12;94473.16;;;-0.02;100.00
6433;BME280;3249;42.690;23.260;2023-01-29T04:29:59;94466.28;;;-0.09;100.00
6433;BME280;3249;42.690;23.260;2023-01-29T04:32:45;94471.19;;;-0.08;100.00
6433;BME280;3249;42.690;23.260;2023-01-29T04:35:29;94468.31;;;-0.13;100.00
6433;BME280;3249;42.690;23.260;2023-01-29T04:38:09;94480.50;;;-0.08;100.00
6433;BME280;3249;42.690;23.260;2023-01-29T04:40:49;94473.72;;;-0.08;100.00
6433;BME280;3249;42.690;23.260;2023-01-29T04:43:23;94475.44;;;-0.08;100.00
6433;BME280;3249;42.690;23.260;2023-01-29T04:46:07;94482.53;;;-0.12;100.00
6433;BME280;3249;42.690;23.260;2023-01-29T04:48:46;94475.50;;;-0.26;100.00
6433;BME280;3249;42.690;23.260;2023-01-29T04:51:28;94476.47;;;-0.19;100.00
6433;BME280;3249;42.690;23.260;2023-01-29T04:54:07;94482.00;;;-0.23;100.00
6433;BME280;3249;42.690;23.260;2023-01-29T04:56:41;94478.16;;;-0.27;100.00
6433;BME280;3249;42.690;23.260;2023-01-29T04:59:18;94480.84;;;-0.29;100.00
6433;BME280;3249;42.690;23.260;2023-01-29T05:01:49;94479.69;;;-0.34;100.00
6433;BME280;3249;42.690;23.260;2023-01-29T05:04:19;94484.59;;;-0.33;100.00
6433;BME280;3249;42.690;23.260;2023-01-29T05:06:52;94483.66;;;-0.32;100.00
6433;BME280;3249;42.690;23.260;2023-01-29T05:09:24;94479.19;;;-0.38;100.00
6433;BME280;3249;42.690;23.260;2023-01-29T05:11:54;94484.25;;;-0.38;100.00
6433;BME280;3249;42.690;23.260;2023-01-29T05:14:24;94484.38;;;-0.39;100.00
6433;BME280;3249;42.690;23.260;2023-01-29T05:16:56;94499.47;;;-0.30;100.00
6433;BME280;3249;42.690;23.260;2023-01-29T05:19:26;94487.41;;;-0.36;100.00
6433;BME280;3249;42.690;23.260;2023-01-29T05:21:58;94493.13;;;-0.34;100.00
6433;BME280;3249;42.690;23.260;2023-01-29T05:24:27;94471.88;;;-0.41;100.00
6433;BME280;3249;42.690;23.260;2023-01-29T05:26:56;94485.91;;;-0.29;100.00
6433;BME280;3249;42.690;23.260;2023-01-29T05:29:38;94410.22;;;-0.83;100.00
6433;BME280;3249;42.690;23.260;2023-01-29T05:32:10;94493.75;;;-0.32;100.00
6433;BME280;3249;42.690;23.260;2023-01-29T05:34:40;94496.78;;;-0.28;100.00
6433;BME280;3249;42.690;23.260;2023-01-29T05:37:11;94503.38;;;-0.18;100.00
6433;BME280;3249;42.690;23.260;2023-01-29T05:39:40;94498.16;;;-0.16;100.00
6433;BME280;3249;42.690;23.260;2023-01-29T05:42:09;94505.44;;;-0.13;100.00
6433;BME280;3249;42.690;23.260;2023-01-29T05:44:38;94504.97;;;-0.17;100.00
6433;BME280;3249;42.690;23.260;2023-01-29T05:47:07;94506.13;;;-0.11;100.00
6433;BME280;3249;42.690;23.260;2023-01-29T05:49:36;94511.59;;;-0.16;100.00
6433;BME280;3249;42.690;23.260;2023-01-29T05:52:05;94516.66;;;-0.16;100.00
6433;BME280;3249;42.690;23.260;2023-01-29T05:54:37;94504.00;;;-0.16;100.00
6433;BME280;3249;42.690;23.260;2023-01-29T05:57:06;94510.38;;;-0.12;100.00
6433;BME280;3249;42.690;23.260;2023-01-29T05:59:35;94516.38;;;-0.13;100.00
6433;BME280;3249;42.690;23.260;2023-01-29T06:02:03;94517.66;;;-0.09;100.00
6433;BME280;3249;42.690;23.260;2023-01-29T06:04:32;94519.91;;;-0.06;100.00
6433;BME280;3249;42.690;23.260;2023-01-29T06:07:01;94528.06;;;-0.12;100.00
6433;BME280;3249;42.690;23.260;2023-01-29T06:09:31;94531.25;;;-0.10;100.00
6433;BME280;3249;42.690;23.260;2023-01-29T06:12:03;94528.81;;;-0.02;100.00
6433;BME280;3249;42.690;23.260;2023-01-29T06:14:32;94529.84;;;-0.04;100.00
6433;BME280;3249;42.690;23.260;2023-01-29T06:17:01;94532.56;;;-0.06;100.00
6433;BME280;3249;42.690;23.260;2023-01-29T06:19:30;94543.66;;;0.01;100.00
6433;BME280;3249;42.690;23.260;2023-01-29T06:21:59;94529.00;;;-0.13;100.00
6433;BME280;3249;42.690;23.260;2023-01-29T06:24:28;94540.09;;;-0.14;100.00
6433;BME280;3249;42.690;23.260;2023-01-29T06:26:57;94550.19;;;-0.14;100.00
6433;BME280;3249;42.690;23.260;2023-01-29T06:29:29;94555.47;;;-0.07;100.00
6433;BME280;3249;42.690;23.260;2023-01-29T06:31:58;94556.25;;;-0.07;100.00
6433;BME280;3249;42.690;23.260;2023-01-29T06:34:26;94561.63;;;-0.10;100.00
6433;BME280;3249;42.690;23.260;2023-01-29T06:36:55;94558.56;;;-0.13;100.00
6433;BME280;3249;42.690;23.260;2023-01-29T06:39:24;94563.97;;;-0.08;100.00
6433;BME280;3249;42.690;23.260;2023-01-29T06:41:53;94564.50;;;-0.05;100.00
6433;BME280;3249;42.690;23.260;2023-01-29T06:44:22;94553.09;;;-0.09;100.00
6433;BME280;3249;42.690;23.260;2023-01-29T06:46:54;94564.84;;;0.00;100.00
6433;BME280;3249;42.690;23.260;2023-01-29T06:49:23;94565.88;;;0.08;100.00
6433;BME280;3249;42.690;23.260;2023-01-29T06:51:52;94530.94;;;-0.07;100.00
6433;BME280;3249;42.690;23.260;2023-01-29T06:54:21;94570.09;;;0.25;100.00
6433;BME280;3249;42.690;23.260;2023-01-29T06:56:50;94575.75;;;0.36;100.00
6433;BME280;3249;42.690;23.260;2023-01-29T06:59:21;94579.84;;;0.37;100.00
6433;BME280;3249;42.690;23.260;2023-01-29T07:01:50;94581.53;;;0.29;100.00
6433;BME280;3249;42.690;23.260;2023-01-29T07:04:21;94579.06;;;0.37;100.00
6433;BME280;3249;42.690;23.260;2023-01-29T07:06:50;94535.84;;;0.13;100.00
6433;BME280;3249;42.690;23.260;2023-01-29T07:09:19;94581.41;;;0.56;100.00
6433;BME280;3249;42.690;23.260;2023-01-29T07:11:48;94588.06;;;0.57;100.00
6433;BME280;3249;42.690;23.260;2023-01-29T07:14:17;94595.03;;;0.55;100.00
6433;BME280;3249;42.690;23.260;2023-01-29T07:16:46;94597.56;;;0.80;100.00
6433;BME280;3249;42.690;23.260;2023-01-29T07:19:15;94601.56;;;0.91;100.00
6433;BME280;3249;42.690;23.260;2023-01-29T07:21:46;94606.94;;;0.88;100.00
6433;BME280;3249;42.690;23.260;2023-01-29T07:24:15;94603.34;;;0.73;100.00
6433;BME280;3249;42.690;23.260;2023-01-29T07:26:44;94607.56;;;0.82;100.00
6433;BME280;3249;42.690;23.260;2023-01-29T07:29:13;94608.41;;;0.73;100.00
6433;BME280;3249;42.690;23.260;2023-01-29T07:31:42;94615.63;;;0.60;100.00
6433;BME280;3249;42.690;23.260;2023-01-29T07:34:11;94608.97;;;0.59;100.00
6433;BME280;3249;42.690;23.260;2023-01-29T07:36:40;94574.03;;;0.45;100.00
6433;BME280;3249;42.690;23.260;2023-01-29T07:39:11;94614.81;;;0.85;100.00
6433;BME280;3249;42.690;23.260;2023-01-29T07:41:41;94615.50;;;0.87;100.00
6433;BME280;3249;42.690;23.260;2023-01-29T07:44:22;94620.34;;;1.06;100.00
6433;BME280;3249;42.690;23.260;2023-01-29T07:46:51;94614.66;;;1.12;100.00
6433;BME280;3249;42.690;23.260;2023-01-29T07:49:20;94620.72;;;1.19;100.00
6433;BME280;3249;42.690;23.260;2023-01-29T07:51:49;94622.66;;;1.25;100.00
6433;BME280;3249;42.690;23.260;2023-01-29T07:54:20;94619.41;;;1.40;100.00
6433;BME280;3249;42.690;23.260;2023-01-29T07:56:49;94633.84;;;1.48;100.00
6433;BME280;3249;42.690;23.260;2023-01-29T07:59:18;94625.91;;;1.43;100.00
6433;BME280;3249;42.690;23.260;2023-01-29T08:01:47;94617.97;;;1.38;100.00
6433;BME280;3249;42.690;23.260;2023-01-29T08:04:16;94611.28;;;1.37;100.00
6433;BME280;3249;42.690;23.260;2023-01-29T08:06:45;94607.53;;;1.15;100.00
6433;BME280;3249;42.690;23.260;2023-01-29T08:09:21;94625.13;;;1.17;100.00
6433;BME280;3249;42.690;23.260;2023-01-29T08:11:50;94578.88;;;0.81;100.00
6433;BME280;3249;42.690;23.260;2023-01-29T08:14:19;94640.53;;;1.23;100.00
6433;BME280;3249;42.690;23.260;2023-01-29T08:16:49;94639.63;;;1.24;100.00
6433;BME280;3249;42.690;23.260;2023-01-29T08:19:18;94595.75;;;0.98;100.00
6433;BME280;3249;42.690;23.260;2023-01-29T08:21:47;94641.97;;;1.18;100.00
6433;BME280;3249;42.690;23.260;2023-01-29T08:24:17;94642.44;;;1.21;100.00
6433;BME280;3249;42.690;23.260;2023-01-29T08:26:48;94627.00;;;1.07;100.00
6433;BME280;3249;42.690;23.260;2023-01-29T08:29:17;94630.97;;;1.09;100.00
6433;BME280;3249;42.690;23.260;2023-01-29T08:31:46;94629.63;;;0.97;100.00
6433;BME280;3249;42.690;23.260;2023-01-29T08:34:15;94625.19;;;0.99;100.00
6433;BME280;3249;42.690;23.260;2023-01-29T08:36:44;94653.22;;;1.23;100.00
6433;BME280;3249;42.690;23.260;2023-01-29T08:39:14;94658.53;;;1.38;100.00
6433;BME280;3249;42.690;23.260;2023-01-29T08:41:43;94659.84;;;1.42;100.00
6433;BME280;3249;42.690;23.260;2023-01-29T08:44:15;94645.41;;;1.17;100.00
6433;BME280;3249;42.690;23.260;2023-01-29T08:46:44;94658.28;;;1.23;100.00
6433;BME280;3249;42.690;23.260;2023-01-29T08:49:12;94657.47;;;1.15;100.00
6433;BME280;3249;42.690;23.260;2023-01-29T08:51:42;94662.25;;;1.18;100.00
6433;BME280;3249;42.690;23.260;2023-01-29T08:54:13;94674.06;;;1.35;100.00
6433;BME280;3249;42.690;23.260;2023-01-29T08:56:42;94676.91;;;1.40;100.00
6433;BME280;3249;42.690;23.260;2023-01-29T08:59:14;94651.28;;;1.17;100.00
6433;BME280;3249;42.690;23.260;2023-01-29T09:01:43;94658.13;;;1.25;100.00
6433;BME280;3249;42.690;23.260;2023-01-29T09:04:12;94679.13;;;1.35;100.00
6433;BME280;3249;42.690;23.260;2023-01-29T09:06:41;94670.25;;;1.39;100.00
6433;BME280;3249;42.690;23.260;2023-01-29T09:09:10;94685.00;;;1.10;100.00
6433;BME280;3249;42.690;23.260;2023-01-29T09:11:39;94678.63;;;1.31;100.00
6433;BME280;3249;42.690;23.260;2023-01-29T09:14:09;94656.06;;;1.20;100.00
6433;BME280;3249;42.690;23.260;2023-01-29T09:16:41;94637.91;;;1.33;100.00
6433;BME280;3249;42.690;23.260;2023-01-29T09:19:10;94675.34;;;1.72;100.00
6433;BME280;3249;42.690;23.260;2023-01-29T09:21:39;94673.88;;;1.62;100.00
6433;BME280;3249;42.690;23.260;2023-01-29T09:24:08;94673.78;;;1.79;100.00
6433;BME280;3249;42.690;23.260;2023-01-29T09:26:37;94650.47;;;1.42;100.00
6433;BME280;3249;42.690;23.260;2023-01-29T09:29:08;94671.25;;;1.46;100.00
6433;BME280;3249;42.690;23.260;2023-01-29T09:31:38;94662.72;;;1.55;100.00
6433;BME280;3249;42.690;23.260;2023-01-29T09:34:09;94681.00;;;1.66;100.00
6433;BME280;3249;42.690;23.260;2023-01-29T09:36:40;94664.09;;;1.41;100.00
6433;BME280;3249;42.690;23.260;2023-01-29T09:39:10;94670.16;;;1.48;100.00
6433;BME280;3249;42.690;23.260;2023-01-29T09:41:47;94659.66;;;1.35;100.00
6433;BME280;3249;42.690;23.260;2023-01-29T09:44:25;94658.59;;;1.46;100.00
6433;BME280;3249;42.690;23.260;2023-01-29T09:47:01;94645.31;;;1.26;100.00
6433;BME280;3249;42.690;23.260;2023-01-29T09:49:37;94660.38;;;1.28;100.00
6433;BME280;3249;42.690;23.260;2023-01-29T09:52:13;94657.50;;;1.23;100.00
6433;BME280;3249;42.690;23.260;2023-01-29T09:54:49;94658.19;;;1.33;100.00
6433;BME280;3249;42.690;23.260;2023-01-29T09:57:24;94659.28;;;1.30;100.00
6433;BME280;3249;42.690;23.260;2023-01-29T09:59:55;94653.78;;;1.09;100.00
6433;BME280;3249;42.690;23.260;2023-01-29T10:02:41;94652.06;;;1.10;100.00
6433;BME280;3249;42.690;23.260;2023-01-29T10:05:26;94641.66;;;0.95;100.00
6433;BME280;3249;42.690;23.260;2023-01-29T10:08:19;94639.34;;;1.02;100.00
6433;BME280;3249;42.690;23.260;2023-01-29T10:10:56;94647.66;;;0.94;100.00
6433;BME280;3249;42.690;23.260;2023-01-29T10:13:32;94643.84;;;0.90;100.00
6433;BME280;3249;42.690;23.260;2023-01-29T10:19:14;94648.28;;;0.88;100.00
6433;BME280;3249;42.690;23.260;2023-01-29T10:22:01;94640.09;;;0.77;100.00
6433;BME280;3249;42.690;23.260;2023-01-29T10:24:37;94638.34;;;0.52;100.00
6433;BME280;3249;42.690;23.260;2023-01-29T10:27:17;94635.84;;;0.34;100.00
6433;BME280;3249;42.690;23.260;2023-01-29T10:29:48;94637.22;;;0.29;100.00
6433;BME280;3249;42.690;23.260;2023-01-29T10:32:20;94628.25;;;0.34;100.00
6433;BME280;3249;42.690;23.260;2023-01-29T10:34:55;94630.97;;;0.41;100.00
6433;BME280;3249;42.690;23.260;2023-01-29T10:37:35;94617.28;;;0.51;100.00
6433;BME280;3249;42.690;23.260;2023-01-29T10:40:21;94603.47;;;0.46;100.00
6433;BME280;3249;42.690;23.260;2023-01-29T10:42:57;94621.25;;;0.54;100.00
6433;BME280;3249;42.690;23.260;2023-01-29T10:45:32;94623.59;;;0.47;100.00
6433;BME280;3249;42.690;23.260;2023-01-29T10:48:33;94616.44;;;0.43;100.00
6433;BME280;3249;42.690;23.260;2023-01-29T10:51:15;94618.31;;;0.41;100.00
6433;BME280;3249;42.690;23.260;2023-01-29T10:54:02;94619.91;;;0.42;100.00
6433;BME280;3249;42.690;23.260;2023-01-29T10:56:43;94614.84;;;0.42;100.00
6433;BME280;3249;42.690;23.260;2023-01-29T10:59:34;94619.97;;;0.50;100.00
6433;BME280;3249;42.690;23.260;2023-01-29T11:02:14;94609.75;;;0.59;100.00
6433;BME280;3249;42.690;23.260;2023-01-29T11:04:44;94613.81;;;0.70;100.00
6433;BME280;3249;42.690;23.260;2023-01-29T11:07:15;94603.50;;;0.71;100.00
6433;BME280;3249;42.690;23.260;2023-01-29T11:09:52;94596.84;;;0.70;100.00
6433;BME280;3249;42.690;23.260;2023-01-29T11:12:26;94599.25;;;0.72;100.00
6433;BME280;3249;42.690;23.260;2023-01-29T11:15:02;94605.25;;;0.71;100.00
6433;BME280;3249;42.690;23.260;2023-01-29T11:17:35;94604.06;;;0.83;100.00
6433;BME280;3249;42.690;23.260;2023-01-29T11:20:11;94607.09;;;0.86;100.00
6433;BME280;3249;42.690;23.260;2023-01-29T11:22:53;94581.16;;;0.67;100.00
6433;BME280;3249;42.690;23.260;2023-01-29T11:25:26;94600.44;;;0.85;100.00
6433;BME280;3249;42.690;23.260;2023-01-29T11:27:58;94594.97;;;0.98;100.00
6433;BME280;3249;42.690;23.260;2023-01-29T11:30:31;94598.13;;;1.00;100.00
6433;BME280;3249;42.690;23.260;2023-01-29T11:33:11;94598.03;;;1.09;100.00
6433;BME280;3249;42.690;23.260;2023-01-29T11:35:45;94578.09;;;1.14;100.00
6433;BME280;3249;42.690;23.260;2023-01-29T11:38:18;94554.28;;;1.07;100.00
6433;BME280;3249;42.690;23.260;2023-01-29T11:40:52;94579.41;;;1.26;100.00
6433;BME280;3249;42.690;23.260;2023-01-29T11:43:32;94558.69;;;1.31;100.00
6433;BME280;3249;42.690;23.260;2023-01-29T11:46:03;94569.47;;;1.41;100.00
6433;BME280;3249;42.690;23.260;2023-01-29T11:48:40;94562.75;;;1.24;100.00
6433;BME280;3249;42.690;23.260;2023-01-29T11:51:18;94566.22;;;1.15;100.00
6433;BME280;3249;42.690;23.260;2023-01-29T11:53:51;94570.13;;;1.43;100.00
6433;BME280;3249;42.690;23.260;2023-01-29T11:56:27;94571.75;;;1.60;100.00
6433;BME280;3249;42.690;23.260;2023-01-29T11:58:57;94557.19;;;1.62;100.00
6433;BME280;3249;42.690;23.260;2023-01-29T12:01:31;94577.53;;;1.86;100.00
6433;BME280;3249;42.690;23.260;2023-01-29T12:04:02;94565.47;;;2.04;100.00
6433;BME280;3249;42.690;23.260;2023-01-29T12:06:34;94565.19;;;2.23;100.00
6433;BME280;3249;42.690;23.260;2023-01-29T12:09:09;94561.34;;;2.67;100.00
6433;BME280;3249;42.690;23.260;2023-01-29T12:11:41;94565.19;;;2.39;100.00
6433;BME280;3249;42.690;23.260;2023-01-29T12:14:23;94557.72;;;2.29;100.00
6433;BME280;3249;42.690;23.260;2023-01-29T12:16:58;94565.84;;;2.25;100.00
6433;BME280;3249;42.690;23.260;2023-01-29T12:19:34;94556.44;;;2.17;100.00
6433;BME280;3249;42.690;23.260;2023-01-29T12:22:13;94569.94;;;2.26;100.00
6433;BME280;3249;42.690;23.260;2023-01-29T12:24:48;94577.41;;;2.27;100.00
6433;BME280;3249;42.690;23.260;2023-01-29T12:27:26;94567.72;;;2.31;100.00
6433;BME280;3249;42.690;23.260;2023-01-29T12:30:02;94571.69;;;2.09;100.00
6433;BME280;3249;42.690;23.260;2023-01-29T12:32:41;94568.03;;;2.04;100.00
6433;BME280;3249;42.690;23.260;2023-01-29T12:35:18;94554.41;;;2.13;100.00
6433;BME280;3249;42.690;23.260;2023-01-29T12:37:53;94568.69;;;2.30;100.00
6433;BME280;3249;42.690;23.260;2023-01-29T12:40:28;94570.72;;;2.34;100.00
6433;BME280;3249;42.690;23.260;2023-01-29T12:43:04;94572.00;;;2.30;100.00
6433;BME280;3249;42.690;23.260;2023-01-29T12:45:38;94566.44;;;2.19;100.00
6433;BME280;3249;42.690;23.260;2023-01-29T12:48:12;94565.81;;;2.17;100.00
6433;BME280;3249;42.690;23.260;2023-01-29T12:50:42;94556.28;;;2.03;100.00
6433;BME280;3249;42.690;23.260;2023-01-29T12:53:22;94574.03;;;1.95;100.00
6433;BME280;3249;42.690;23.260;2023-01-29T12:55:55;94566.09;;;1.74;100.00
6433;BME280;3249;42.690;23.260;2023-01-29T12:58:32;94564.00;;;1.69;100.00
6433;BME280;3249;42.690;23.260;2023-01-29T13:01:08;94569.25;;;1.76;100.00
6433;BME280;3249;42.690;23.260;2023-01-29T13:03:45;94555.59;;;1.77;100.00
6433;BME280;3249;42.690;23.260;2023-01-29T13:06:20;94566.38;;;1.71;100.00
6433;BME280;3249;42.690;23.260;2023-01-29T13:08:53;94559.09;;;1.68;100.00
6433;BME280;3249;42.690;23.260;2023-01-29T13:11:26;94563.56;;;1.90;100.00
6433;BME280;3249;42.690;23.260;2023-01-29T13:14:05;94562.31;;;1.94;100.00
6433;BME280;3249;42.690;23.260;2023-01-29T13:16:40;94532.47;;;1.80;100.00
6433;BME280;3249;42.690;23.260;2023-01-29T13:19:20;94559.13;;;2.00;100.00
6433;BME280;3249;42.690;23.260;2023-01-29T13:21:54;94570.53;;;1.96;100.00
6433;BME280;3249;42.690;23.260;2023-01-29T13:24:29;94533.78;;;1.26;100.00
6433;BME280;3249;42.690;23.260;2023-01-29T13:27:01;94562.66;;;1.41;100.00
6433;BME280;3249;42.690;23.260;2023-01-29T13:29:34;94554.00;;;1.68;100.00
6433;BME280;3249;42.690;23.260;2023-01-29T13:32:04;94567.88;;;1.40;100.00
6433;BME280;3249;42.690;23.260;2023-01-29T13:34:35;94556.16;;;1.39;100.00
6433;BME280;3249;42.690;23.260;2023-01-29T13:37:10;94572.69;;;1.51;100.00
6433;BME280;3249;42.690;23.260;2023-01-29T13:39:48;94577.00;;;1.66;100.00
6433;BME280;3249;42.690;23.260;2023-01-29T13:42:20;94554.16;;;1.17;100.00
6433;BME280;3249;42.690;23.260;2023-01-29T13:44:54;94570.84;;;0.86;100.00
6433;BME280;3249;42.690;23.260;2023-01-29T13:47:26;94581.94;;;0.93;100.00